Time;durP1;ratioP1;P1;durP2;ratioP2;P2;SDS_P1;SDS_P2;PMS_P1;PMS_P2;Temp;Humidity;BMP_temperature;BMP_pressure;BME280_temperature;BME280_humidity;BME280_pressure;Samples;Min_cycle;Max_cycle;Signal;HPM_P1;HPM_P2
2023/10/31 00:00:38;;;;;;;;;;;14.50;99.90;;;;;;4940024;29;19906;-80
2023/10/31 00:03:03;;;;;;;;;;;14.90;99.90;;;;;;4940084;29;19934;-82
2023/10/31 00:05:29;;;;;;;;;;;14.70;99.90;;;;;;4939729;29;19917;-80
2023/10/31 00:07:54;;;;;;;;;;;14.40;99.90;;;;;;4939685;29;19916;-81
2023/10/31 00:10:20;;;;;;;;;;;14.30;99.90;;;;;;4939406;29;20377;-78
2023/10/31 00:12:45;;;;;;;;;;;14.30;99.90;;;;;;4939545;29;19957;-79
2023/10/31 00:15:11;;;;;;;;;;;14.40;99.90;;;;;;4939633;29;19913;-80
2023/10/31 00:17:36;;;;;;;;;;;14.50;99.90;;;;;;4936386;29;19934;-78
2023/10/31 00:20:03;;;;;;;;;;;14.60;99.90;;;;;;4936198;29;19907;-78
2023/10/31 00:22:28;;;;;;;;;;;14.90;99.90;;;;;;4937565;29;19915;-80
2023/10/31 00:24:54;;;;;;;;;;;15.00;99.90;;;;;;4936401;29;19907;-78
2023/10/31 00:27:19;;;;;;;;;;;15.30;99.90;;;;;;4937964;29;19924;-79
2023/10/31 00:29:45;;;;;;;;;;;15.30;99.90;;;;;;4936079;29;19918;-78
2023/10/31 00:32:10;;;;;;;;;;;15.30;99.90;;;;;;4928944;29;19907;-80
2023/10/31 00:34:36;;;;;;;;;;;15.40;99.90;;;;;;4933189;29;19930;-78
2023/10/31 00:37:01;;;;;;;;;;;15.40;99.90;;;;;;4917961;29;19911;-79
2023/10/31 00:39:27;;;;;;;;;;;15.40;99.90;;;;;;4918683;29;19974;-79
2023/10/31 00:41:52;;;;;;;;;;;15.20;99.90;;;;;;4917967;29;19907;-78
2023/10/31 00:44:18;;;;;;;;;;;15.10;99.90;;;;;;4918554;29;19907;-80
2023/10/31 00:46:44;;;;;;;;;;;15.00;99.90;;;;;;4916830;29;19938;-78
2023/10/31 00:49:09;;;;;;;;;;;15.00;99.90;;;;;;4916699;29;20382;-79
2023/10/31 00:51:35;;;;;;;;;;;15.00;99.90;;;;;;4918311;29;19998;-79
2023/10/31 00:54:00;;;;;;;;;;;14.90;99.90;;;;;;4917037;29;19907;-81
2023/10/31 00:56:26;;;;;;;;;;;14.60;99.90;;;;;;4916225;29;19907;-78
2023/10/31 00:58:52;;;;;;;;;;;14.50;99.90;;;;;;4918313;29;20382;-80
2023/10/31 01:01:17;;;;;;;;;;;14.40;99.90;;;;;;4927379;29;19911;-78
2023/10/31 01:03:43;;;;;;;;;;;14.40;99.90;;;;;;4937127;29;19907;-78
2023/10/31 01:06:08;;;;;;;;;;;14.40;99.90;;;;;;4936818;29;19970;-78
2023/10/31 01:08:34;;;;;;;;;;;14.40;99.90;;;;;;4944016;29;19930;-80
2023/10/31 01:11:00;;;;;;;;;;;14.40;99.90;;;;;;4940339;29;19922;-78
2023/10/31 01:13:25;;;;;;;;;;;14.50;99.90;;;;;;4897327;29;20350;-78
2023/10/31 01:15:51;;;;;;;;;;;14.60;99.90;;;;;;4918836;29;20409;-78
2023/10/31 01:18:16;;;;;;;;;;;14.50;99.90;;;;;;4935430;29;19918;-78
2023/10/31 01:20:42;;;;;;;;;;;14.50;99.90;;;;;;4935215;29;19906;-78
2023/10/31 01:23:07;;;;;;;;;;;14.50;99.90;;;;;;4935240;29;19907;-79
2023/10/31 01:25:33;;;;;;;;;;;14.50;99.90;;;;;;4935040;29;19906;-79
2023/10/31 01:28:02;;;;;;;;;;;14.60;99.90;;;;;;4935155;29;19911;-78
2023/10/31 01:30:27;;;;;;;;;;;14.60;99.90;;;;;;4935289;29;20442;-78
2023/10/31 01:32:53;;;;;;;;;;;14.80;99.90;;;;;;4934700;29;20009;-78
2023/10/31 01:35:18;;;;;;;;;;;14.80;99.90;;;;;;4934725;29;19994;-78
2023/10/31 01:37:44;;;;;;;;;;;14.70;99.90;;;;;;4922436;29;20302;-78
2023/10/31 01:40:12;;;;;;;;;;;14.70;99.90;;;;;;4916256;29;19926;-80
2023/10/31 01:42:37;;;;;;;;;;;14.70;99.90;;;;;;4924052;29;19907;-79
2023/10/31 01:45:03;;;;;;;;;;;14.70;99.90;;;;;;4916157;29;19907;-78
2023/10/31 01:47:29;;;;;;;;;;;14.70;99.90;;;;;;4927633;29;19903;-80
2023/10/31 01:49:55;;;;;;;;;;;14.70;99.90;;;;;;4930077;29;19911;-78
2023/10/31 01:52:21;;;;;;;;;;;14.70;99.90;;;;;;4917057;29;19994;-80
2023/10/31 01:54:46;;;;;;;;;;;14.80;99.90;;;;;;4916229;29;19907;-79
2023/10/31 01:57:12;;;;;;;;;;;14.80;99.90;;;;;;4915329;29;20400;-79
2023/10/31 01:59:39;;;;;;;;;;;14.70;99.90;;;;;;4917296;29;19907;-78
2023/10/31 02:02:05;;;;;;;;;;;14.70;99.90;;;;;;4916981;29;19911;-79
2023/10/31 02:04:30;;;;;;;;;;;14.70;99.90;;;;;;4916998;29;19911;-79
2023/10/31 02:06:56;;;;;;;;;;;14.70;99.90;;;;;;4915875;29;19962;-80
2023/10/31 02:09:26;;;;;;;;;;;14.70;99.90;;;;;;4916083;29;20010;-79
2023/10/31 02:11:52;;;;;;;;;;;14.80;99.90;;;;;;4908521;29;19907;-79
2023/10/31 02:14:18;;;;;;;;;;;14.80;99.90;;;;;;4898317;29;19918;-78
2023/10/31 02:16:43;;;;;;;;;;;14.70;99.90;;;;;;4898420;29;19907;-79
2023/10/31 02:19:10;;;;;;;;;;;14.70;99.90;;;;;;4896700;29;20161;-79
2023/10/31 02:21:39;;;;;;;;;;;14.70;99.90;;;;;;4897966;29;19908;-79
2023/10/31 02:24:04;;;;;;;;;;;14.70;99.90;;;;;;4898185;29;19908;-78
2023/10/31 02:26:31;;;;;;;;;;;14.70;99.90;;;;;;4914568;29;19918;-80
2023/10/31 02:28:57;;;;;;;;;;;14.60;99.90;;;;;;4915470;29;19927;-80
2023/10/31 02:31:22;;;;;;;;;;;14.60;99.90;;;;;;4915511;29;19907;-79
2023/10/31 02:33:48;;;;;;;;;;;14.60;99.90;;;;;;4915494;29;20447;-79
2023/10/31 02:36:13;;;;;;;;;;;14.60;99.90;;;;;;4939170;29;19906;-79
2023/10/31 02:38:39;;;;;;;;;;;14.60;99.90;;;;;;4929683;29;19974;-79
2023/10/31 02:41:05;;;;;;;;;;;14.60;99.90;;;;;;4915325;29;19915;-79
2023/10/31 02:43:30;;;;;;;;;;;14.60;99.90;;;;;;4915341;29;19911;-79
2023/10/31 02:45:56;;;;;;;;;;;14.60;99.90;;;;;;4915505;29;19907;-79
2023/10/31 02:48:23;;;;;;;;;;;14.60;99.90;;;;;;4915444;29;19918;-80
2023/10/31 02:50:49;;;;;;;;;;;14.70;99.90;;;;;;4917093;29;20367;-78
2023/10/31 02:53:14;;;;;;;;;;;14.70;99.90;;;;;;4914920;29;19918;-78
2023/10/31 02:55:40;;;;;;;;;;;14.70;99.90;;;;;;4916542;29;19918;-78
2023/10/31 02:58:05;;;;;;;;;;;14.70;99.90;;;;;;4916563;29;19907;-79
2023/10/31 03:00:31;;;;;;;;;;;14.70;99.90;;;;;;4919697;29;20341;-80
2023/10/31 03:02:56;;;;;;;;;;;14.60;99.90;;;;;;4934216;29;19961;-79
2023/10/31 03:05:22;;;;;;;;;;;14.70;99.90;;;;;;4937708;29;19907;-80
2023/10/31 03:07:48;;;;;;;;;;;14.70;99.90;;;;;;4937784;29;19911;-78
2023/10/31 03:10:13;;;;;;;;;;;14.80;99.90;;;;;;4935462;29;19942;-78
2023/10/31 03:12:39;;;;;;;;;;;14.70;99.90;;;;;;4905475;29;20006;-79
2023/10/31 03:15:04;;;;;;;;;;;14.70;99.90;;;;;;4901444;29;19907;-80
2023/10/31 03:17:30;;;;;;;;;;;14.60;99.90;;;;;;4899789;29;19916;-80
2023/10/31 03:19:55;;;;;;;;;;;14.70;99.90;;;;;;4905500;29;19914;-78
2023/10/31 03:22:21;;;;;;;;;;;14.60;99.90;;;;;;4898803;29;19907;-79
2023/10/31 03:24:47;;;;;;;;;;;14.60;99.90;;;;;;4899559;29;19915;-78
2023/10/31 03:27:12;;;;;;;;;;;14.60;99.90;;;;;;4900861;29;19908;-78
2023/10/31 03:29:41;;;;;;;;;;;14.60;99.90;;;;;;4899447;29;19907;-79
2023/10/31 03:32:06;;;;;;;;;;;14.60;99.90;;;;;;4899431;29;20002;-78
2023/10/31 03:34:32;;;;;;;;;;;14.50;99.90;;;;;;4899266;29;20014;-79
2023/10/31 03:36:57;;;;;;;;;;;14.60;99.90;;;;;;4906088;29;19958;-78
2023/10/31 03:39:23;;;;;;;;;;;14.60;99.90;;;;;;4918260;29;19922;-78
2023/10/31 03:41:48;;;;;;;;;;;14.50;99.90;;;;;;4918114;29;19990;-79
2023/10/31 03:44:14;;;;;;;;;;;14.40;99.90;;;;;;4918159;29;19907;-80
2023/10/31 03:46:40;;;;;;;;;;;14.40;99.90;;;;;;4918008;29;19919;-78
2023/10/31 03:49:07;;;;;;;;;;;14.50;99.90;;;;;;4919067;29;20362;-80
2023/10/31 03:51:33;;;;;;;;;;;14.50;99.90;;;;;;4917886;29;19907;-78
2023/10/31 03:53:58;;;;;;;;;;;14.40;99.90;;;;;;4926843;29;19925;-79
2023/10/31 03:56:24;;;;;;;;;;;14.50;99.90;;;;;;4944166;29;19902;-79
2023/10/31 03:58:49;;;;;;;;;;;14.50;99.90;;;;;;4921572;29;19915;-78
2023/10/31 04:01:15;;;;;;;;;;;14.60;99.90;;;;;;4927473;29;19914;-78
2023/10/31 04:03:40;;;;;;;;;;;14.60;99.90;;;;;;4936523;29;19906;-78
2023/10/31 04:06:06;;;;;;;;;;;14.60;99.90;;;;;;4936826;29;19913;-79
2023/10/31 04:08:32;;;;;;;;;;;14.50;99.90;;;;;;4936394;29;19934;-78
2023/10/31 04:10:57;;;;;;;;;;;14.40;99.90;;;;;;4936385;29;19966;-78
2023/10/31 04:13:23;;;;;;;;;;;14.50;99.90;;;;;;4918899;29;19907;-78
2023/10/31 04:15:48;;;;;;;;;;;14.50;99.90;;;;;;4917586;29;19923;-78
2023/10/31 04:18:14;;;;;;;;;;;14.50;99.90;;;;;;4928718;29;20359;-79
2023/10/31 04:20:40;;;;;;;;;;;14.50;99.90;;;;;;4937757;29;19914;-78
2023/10/31 04:23:05;;;;;;;;;;;14.50;99.90;;;;;;4920554;29;19907;-79
2023/10/31 04:25:31;;;;;;;;;;;14.50;99.90;;;;;;4937805;29;20381;-78
2023/10/31 04:27:57;;;;;;;;;;;14.50;99.90;;;;;;4920485;29;20346;-78
2023/10/31 04:30:23;;;;;;;;;;;14.50;99.90;;;;;;4937601;29;19907;-78
2023/10/31 04:32:48;;;;;;;;;;;14.50;99.90;;;;;;4919984;29;20286;-78
2023/10/31 04:35:14;;;;;;;;;;;14.50;99.90;;;;;;4937494;29;20363;-79
2023/10/31 04:37:39;;;;;;;;;;;14.50;99.90;;;;;;4937359;29;20050;-79
2023/10/31 04:40:05;;;;;;;;;;;14.50;99.90;;;;;;4958438;29;19913;-78
2023/10/31 04:42:34;;;;;;;;;;;14.50;99.90;;;;;;4950554;29;20263;-78
2023/10/31 04:44:59;;;;;;;;;;;14.40;99.90;;;;;;4935997;29;20359;-78
2023/10/31 04:47:28;;;;;;;;;;;14.50;99.90;;;;;;4937362;29;19962;-78
2023/10/31 04:49:53;;;;;;;;;;;14.40;99.90;;;;;;4918145;29;19914;-79
2023/10/31 04:52:19;;;;;;;;;;;14.50;99.90;;;;;;4916827;29;19907;-78
2023/10/31 04:54:45;;;;;;;;;;;14.50;99.90;;;;;;4916617;29;19907;-78
2023/10/31 04:57:11;;;;;;;;;;;14.50;99.90;;;;;;4918208;29;19906;-79
2023/10/31 04:59:37;;;;;;;;;;;14.40;99.90;;;;;;4916612;29;19974;-78
2023/10/31 05:02:03;;;;;;;;;;;14.40;99.90;;;;;;4903370;29;19911;-79
2023/10/31 05:04:28;;;;;;;;;;;14.30;99.90;;;;;;4915397;29;19954;-78
2023/10/31 05:06:54;;;;;;;;;;;14.30;99.90;;;;;;4916549;29;19958;-79
2023/10/31 05:09:20;;;;;;;;;;;14.40;99.90;;;;;;4916289;29;19915;-78
2023/10/31 05:11:45;;;;;;;;;;;14.40;99.90;;;;;;4909332;29;19942;-79
2023/10/31 05:14:11;;;;;;;;;;;14.40;99.90;;;;;;4917653;29;20385;-79
2023/10/31 05:16:40;;;;;;;;;;;14.40;99.90;;;;;;4921762;29;19907;-78
2023/10/31 05:19:06;;;;;;;;;;;14.40;99.90;;;;;;4900035;29;19925;-78
2023/10/31 05:21:31;;;;;;;;;;;14.40;99.90;;;;;;4897252;29;19907;-78
2023/10/31 05:23:57;;;;;;;;;;;14.40;99.90;;;;;;4897398;29;20256;-78
2023/10/31 05:26:22;;;;;;;;;;;14.30;99.90;;;;;;4897039;29;19914;-78
2023/10/31 05:28:48;;;;;;;;;;;14.40;99.90;;;;;;4898887;29;19915;-78
2023/10/31 05:31:15;;;;;;;;;;;14.30;99.90;;;;;;4898881;29;20259;-79
2023/10/31 05:33:40;;;;;;;;;;;14.40;99.90;;;;;;4878482;29;19911;-78
2023/10/31 05:36:06;;;;;;;;;;;14.40;99.90;;;;;;4863154;29;19908;-78
2023/10/31 05:38:32;;;;;;;;;;;14.20;99.90;;;;;;4896441;29;19915;-78
2023/10/31 05:40:57;;;;;;;;;;;14.30;99.90;;;;;;4896218;29;19917;-79
2023/10/31 05:43:23;;;;;;;;;;;14.20;99.90;;;;;;4897078;29;19975;-78
2023/10/31 05:45:48;;;;;;;;;;;14.20;99.90;;;;;;4896961;29;20294;-79
2023/10/31 05:48:14;;;;;;;;;;;14.20;99.90;;;;;;4896833;29;19911;-78
2023/10/31 05:50:41;;;;;;;;;;;14.20;99.90;;;;;;4898366;29;19939;-78
2023/10/31 05:53:07;;;;;;;;;;;14.20;99.90;;;;;;4919555;29;20001;-79
2023/10/31 05:55:34;;;;;;;;;;;14.20;99.90;;;;;;4923532;29;19896;-78
2023/10/31 05:57:59;;;;;;;;;;;14.20;99.90;;;;;;4922663;29;20325;-79
2023/10/31 06:00:25;;;;;;;;;;;14.20;99.90;;;;;;4905347;29;20006;-80
2023/10/31 06:02:51;;;;;;;;;;;14.20;99.90;;;;;;4896869;29;19907;-78
2023/10/31 06:05:16;;;;;;;;;;;14.20;99.90;;;;;;4896891;29;19930;-78
2023/10/31 06:07:43;;;;;;;;;;;14.20;99.90;;;;;;4898045;29;19915;-78
2023/10/31 06:10:08;;;;;;;;;;;14.10;99.90;;;;;;4897408;29;19907;-78
2023/10/31 06:12:34;;;;;;;;;;;14.10;99.90;;;;;;4887276;29;19915;-78
2023/10/31 06:14:59;;;;;;;;;;;14.20;99.90;;;;;;4881274;29;20359;-78
2023/10/31 06:17:26;;;;;;;;;;;14.20;99.90;;;;;;4901046;29;19922;-79
2023/10/31 06:19:51;;;;;;;;;;;14.10;99.90;;;;;;4916777;29;20363;-79
2023/10/31 06:22:17;;;;;;;;;;;14.10;99.90;;;;;;4916908;29;19907;-79
2023/10/31 06:24:42;;;;;;;;;;;14.10;99.90;;;;;;4915553;29;19959;-78
2023/10/31 06:27:08;;;;;;;;;;;14.10;99.90;;;;;;4915402;29;20355;-78
2023/10/31 06:29:34;;;;;;;;;;;14.00;99.90;;;;;;4913971;29;20363;-78
2023/10/31 06:31:59;;;;;;;;;;;14.10;99.90;;;;;;4908795;29;19958;-78
2023/10/31 06:34:25;;;;;;;;;;;14.00;99.90;;;;;;4911295;29;19912;-79
2023/10/31 06:36:52;;;;;;;;;;;14.00;99.90;;;;;;4904934;29;19918;-79
2023/10/31 06:39:17;;;;;;;;;;;14.00;99.90;;;;;;4903981;29;19946;-78
2023/10/31 06:41:43;;;;;;;;;;;14.10;99.90;;;;;;4884442;29;20393;-79
2023/10/31 06:44:08;;;;;;;;;;;14.10;99.90;;;;;;4885652;29;19908;-78
2023/10/31 06:46:34;;;;;;;;;;;14.20;99.90;;;;;;4903141;29;19950;-80
2023/10/31 06:48:59;;;;;;;;;;;14.20;99.90;;;;;;4902805;29;20054;-78
2023/10/31 06:51:25;;;;;;;;;;;14.20;99.90;;;;;;4901837;29;19907;-78
2023/10/31 06:53:51;;;;;;;;;;;14.20;99.90;;;;;;4903100;29;20383;-80
2023/10/31 06:56:16;;;;;;;;;;;14.10;99.90;;;;;;4917569;29;19994;-79
2023/10/31 06:58:42;;;;;;;;;;;14.10;99.90;;;;;;4919671;29;19911;-80
2023/10/31 07:01:08;;;;;;;;;;;14.10;99.90;;;;;;4906184;29;19950;-80
2023/10/31 07:03:33;;;;;;;;;;;14.10;99.90;;;;;;4919468;29;19918;-79
2023/10/31 07:05:59;;;;;;;;;;;14.10;99.90;;;;;;4893695;29;19907;-80
2023/10/31 07:08:24;;;;;;;;;;;14.10;99.90;;;;;;4883821;29;19915;-78
2023/10/31 07:10:50;;;;;;;;;;;14.10;99.90;;;;;;4919439;29;19926;-80
2023/10/31 07:13:16;;;;;;;;;;;14.10;99.90;;;;;;4920021;29;19947;-79
2023/10/31 07:15:42;;;;;;;;;;;14.20;99.90;;;;;;4916905;29;19907;-79
2023/10/31 07:18:07;;;;;;;;;;;14.30;99.90;;;;;;4918757;29;19926;-80
2023/10/31 07:20:33;;;;;;;;;;;14.40;99.90;;;;;;4907070;29;20297;-80
2023/10/31 07:22:58;;;;;;;;;;;14.60;99.90;;;;;;4921745;29;19910;-79
2023/10/31 07:25:24;;;;;;;;;;;14.70;99.90;;;;;;4920460;29;20098;-81
2023/10/31 07:27:49;;;;;;;;;;;14.80;99.90;;;;;;4892335;29;20055;-80
2023/10/31 07:30:15;;;;;;;;;;;14.80;99.90;;;;;;4892091;29;20017;-77
2023/10/31 07:32:40;;;;;;;;;;;14.80;99.90;;;;;;4915432;29;19934;-78
2023/10/31 07:35:06;;;;;;;;;;;14.70;99.90;;;;;;4893809;29;19915;-79
2023/10/31 07:37:32;;;;;;;;;;;14.80;99.90;;;;;;4906488;29;19915;-83
2023/10/31 07:39:57;;;;;;;;;;;14.90;99.90;;;;;;4918374;29;19915;-82
2023/10/31 07:42:23;;;;;;;;;;;15.00;99.90;;;;;;4912987;29;20431;-81
2023/10/31 07:44:49;;;;;;;;;;;15.00;99.90;;;;;;4893811;29;20005;-80
2023/10/31 07:47:15;;;;;;;;;;;15.00;99.90;;;;;;4901257;29;19951;-82
2023/10/31 07:49:41;;;;;;;;;;;15.10;99.90;;;;;;4899327;29;19954;-82
2023/10/31 07:52:06;;;;;;;;;;;15.20;99.90;;;;;;4905161;29;20418;-81
2023/10/31 07:54:32;;;;;;;;;;;15.30;99.90;;;;;;4902173;29;19962;-82
2023/10/31 07:56:57;;;;;;;;;;;15.40;99.90;;;;;;4909199;29;19915;-81
2023/10/31 07:59:23;;;;;;;;;;;15.60;99.90;;;;;;4916577;29;19918;-81
2023/10/31 08:01:50;;;;;;;;;;;15.90;99.90;;;;;;4903018;29;19911;-82
2023/10/31 08:04:16;;;;;;;;;;;16.20;99.90;;;;;;4914148;29;19955;-81
2023/10/31 08:06:41;;;;;;;;;;;16.50;99.90;;;;;;4911081;29;19915;-81
2023/10/31 08:09:07;;;;;;;;;;;16.70;99.90;;;;;;4881573;29;19911;-82
2023/10/31 08:11:34;;;;;;;;;;;17.00;99.90;;;;;;4901838;29;20393;-80
2023/10/31 08:14:00;;;;;;;;;;;16.70;99.90;;;;;;4933648;29;19915;-84
2023/10/31 08:16:25;;;;;;;;;;;16.60;99.90;;;;;;4903396;29;19915;-87
2023/10/31 08:18:51;;;;;;;;;;;16.40;99.90;;;;;;4893678;29;20380;-80
2023/10/31 08:21:16;;;;;;;;;;;16.40;99.90;;;;;;4869338;29;20549;-80
2023/10/31 08:23:44;;;;;;;;;;;16.40;99.90;;;;;;4863391;29;19912;-81
2023/10/31 08:26:10;;;;;;;;;;;16.20;99.90;;;;;;4890737;29;19990;-80
2023/10/31 08:28:35;;;;;;;;;;;16.20;99.90;;;;;;4898263;29;20356;-80
2023/10/31 08:31:01;;;;;;;;;;;16.40;99.90;;;;;;4878083;29;19908;-80
2023/10/31 08:33:26;;;;;;;;;;;16.60;99.90;;;;;;4875934;29;19911;-79
2023/10/31 08:35:52;;;;;;;;;;;16.80;99.90;;;;;;4889704;29;20379;-80
2023/10/31 08:38:17;;;;;;;;;;;16.90;99.90;;;;;;4862811;29;19954;-79
2023/10/31 08:40:43;;;;;;;;;;;17.00;99.90;;;;;;4869425;29;19911;-86
2023/10/31 08:43:09;;;;;;;;;;;17.00;99.90;;;;;;4898275;29;20038;-83
2023/10/31 08:45:34;;;;;;;;;;;17.10;99.90;;;;;;4875386;29;19919;-79
2023/10/31 08:48:00;;;;;;;;;;;17.10;99.90;;;;;;4876477;29;19969;-79
2023/10/31 08:50:25;;;;;;;;;;;17.10;99.90;;;;;;4897971;29;19983;-80
2023/10/31 08:52:51;;;;;;;;;;;17.10;99.90;;;;;;4897004;29;19916;-80
2023/10/31 08:55:17;;;;;;;;;;;17.20;99.90;;;;;;4899655;29;19920;-78
2023/10/31 08:57:42;;;;;;;;;;;17.20;99.90;;;;;;4878973;29;20469;-80
2023/10/31 09:00:08;;;;;;;;;;;17.30;99.90;;;;;;4863948;29;19931;-81
2023/10/31 09:02:34;;;;;;;;;;;17.30;99.90;;;;;;4897518;29;20291;-89
2023/10/31 09:04:59;;;;;;;;;;;17.30;99.90;;;;;;4875391;29;19908;-80
2023/10/31 09:07:25;;;;;;;;;;;17.40;99.90;;;;;;4862262;29;19912;-85
2023/10/31 09:09:50;;;;;;;;;;;17.40;99.90;;;;;;4862332;29;20320;-80
2023/10/31 09:12:16;;;;;;;;;;;17.50;99.90;;;;;;4871858;29;19930;-80
2023/10/31 09:14:42;;;;;;;;;;;17.60;99.90;;;;;;4880910;29;19911;-85
2023/10/31 09:17:07;;;;;;;;;;;17.80;99.90;;;;;;4897253;29;19915;-80
2023/10/31 09:19:33;;;;;;;;;;;18.00;99.90;;;;;;4906182;29;19908;-80
2023/10/31 09:21:58;;;;;;;;;;;18.40;99.90;;;;;;4911884;29;19911;-79
2023/10/31 09:24:24;;;;;;;;;;;18.50;99.90;;;;;;4898883;29;19997;-79
2023/10/31 09:26:49;;;;;;;;;;;18.70;99.90;;;;;;4887938;29;19927;-79
2023/10/31 09:29:15;;;;;;;;;;;19.10;99.90;;;;;;4899238;29;19914;-82
2023/10/31 09:31:41;;;;;;;;;;;19.20;99.90;;;;;;4915557;29;20008;-78
2023/10/31 09:34:07;;;;;;;;;;;19.00;99.90;;;;;;4881296;29;20312;-79
2023/10/31 09:36:34;;;;;;;;;;;18.10;99.90;;;;;;4903899;29;20279;-78
2023/10/31 09:38:59;;;;;;;;;;;17.30;99.90;;;;;;4898624;29;19919;-84
2023/10/31 09:41:25;;;;;;;;;;;16.90;99.90;;;;;;4898757;29;19918;-80
2023/10/31 09:43:50;;;;;;;;;;;16.90;99.90;;;;;;4899073;29;20263;-84
2023/10/31 09:46:16;;;;;;;;;;;17.00;99.90;;;;;;4897979;29;19907;-80
2023/10/31 09:48:43;;;;;;;;;;;16.90;99.90;;;;;;4924366;29;19932;-81
2023/10/31 09:51:09;;;;;;;;;;;16.90;99.90;;;;;;4922611;29;19903;-81
2023/10/31 09:53:37;;;;;;;;;;;16.60;99.90;;;;;;4941324;29;19971;-80
2023/10/31 09:56:03;;;;;;;;;;;16.70;99.90;;;;;;4940825;29;19903;-80
2023/10/31 09:58:28;;;;;;;;;;;17.00;99.90;;;;;;4911141;29;20015;-79
2023/10/31 10:00:54;;;;;;;;;;;16.80;99.90;;;;;;4904839;29;19914;-81
2023/10/31 10:03:20;;;;;;;;;;;16.80;99.90;;;;;;4886072;29;20002;-81
2023/10/31 10:05:46;;;;;;;;;;;16.90;99.90;;;;;;4909303;29;20039;-83
2023/10/31 10:08:12;;;;;;;;;;;17.10;99.90;;;;;;4903212;29;20431;-81
2023/10/31 10:10:40;;;;;;;;;;;17.20;99.90;;;;;;4882354;29;20434;-80
2023/10/31 10:13:05;;;;;;;;;;;17.30;99.90;;;;;;4918656;29;20394;-83
2023/10/31 10:15:42;;;;;;;;;;;17.90;99.90;;;;;;4938619;29;19913;-81
2023/10/31 10:18:08;;;;;;;;;;;17.70;99.90;;;;;;4908686;29;19920;-80
2023/10/31 10:20:34;;;;;;;;;;;16.90;99.90;;;;;;4898490;29;19907;-80
2023/10/31 10:23:03;;;;;;;;;;;16.10;99.90;;;;;;4900743;29;19967;-80
2023/10/31 10:25:31;;;;;;;;;;;15.70;99.90;;;;;;4900649;29;19918;-82
2023/10/31 10:27:57;;;;;;;;;;;15.60;99.90;;;;;;4900108;29;20335;-81
2023/10/31 10:30:22;;;;;;;;;;;15.50;99.90;;;;;;4883268;29;19907;-80
2023/10/31 10:32:49;;;;;;;;;;;15.40;99.90;;;;;;4894143;29;19940;-81
2023/10/31 10:35:15;;;;;;;;;;;15.70;99.90;;;;;;4895762;29;19908;-79
2023/10/31 10:37:41;;;;;;;;;;;15.90;99.90;;;;;;4889395;29;19928;-86
2023/10/31 10:40:07;;;;;;;;;;;16.30;99.90;;;;;;4864771;29;19919;-85
2023/10/31 10:42:36;;;;;;;;;;;16.40;99.90;;;;;;4895508;29;20394;-79
2023/10/31 10:45:06;;;;;;;;;;;16.60;99.90;;;;;;4898556;29;20299;-79
2023/10/31 10:47:32;;;;;;;;;;;16.90;99.90;;;;;;4868213;29;20081;-84
2023/10/31 10:49:59;;;;;;;;;;;17.00;99.90;;;;;;4882867;29;19951;-85
2023/10/31 10:52:28;;;;;;;;;;;17.20;99.90;;;;;;4900083;29;19915;-84
2023/10/31 10:54:58;;;;;;;;;;;17.50;99.90;;;;;;4883337;29;19968;-79
2023/10/31 10:57:47;;;;;;;;;;;17.80;99.90;;;;;;4899087;29;19919;-80
2023/10/31 11:00:14;;;;;;;;;;;18.00;99.90;;;;;;4899678;29;19918;-80
2023/10/31 11:02:42;;;;;;;;;;;18.10;99.90;;;;;;4893493;29;19912;-84
2023/10/31 11:05:08;;;;;;;;;;;18.00;99.90;;;;;;4876970;29;19963;-80
2023/10/31 11:07:34;;;;;;;;;;;17.10;99.90;;;;;;4892593;29;19919;-81
2023/10/31 11:10:02;;;;;;;;;;;16.20;99.90;;;;;;4890811;29;19900;-80
2023/10/31 11:12:32;;;;;;;;;;;15.80;99.90;;;;;;4910502;29;19926;-80
2023/10/31 11:15:01;;;;;;;;;;;15.50;99.90;;;;;;4899799;29;19912;-80
2023/10/31 11:17:37;;;;;;;;;;;15.20;99.90;;;;;;4884591;29;19919;-80
2023/10/31 11:20:03;;;;;;;;;;;15.00;99.90;;;;;;4896559;29;19917;-81
2023/10/31 11:22:39;;;;;;;;;;;15.00;99.90;;;;;;4899683;29;20371;-81
2023/10/31 11:25:06;;;;;;;;;;;15.00;99.90;;;;;;4905742;29;19912;-80
2023/10/31 11:27:33;;;;;;;;;;;15.10;99.90;;;;;;4906845;29;19915;-80
2023/10/31 11:29:59;;;;;;;;;;;15.20;99.90;;;;;;4901047;29;19967;-81
2023/10/31 11:32:26;;;;;;;;;;;15.40;99.90;;;;;;4914528;29;20374;-81
2023/10/31 11:34:51;;;;;;;;;;;15.40;99.90;;;;;;4903368;29;19915;-83
2023/10/31 11:37:24;;;;;;;;;;;15.50;99.90;;;;;;4918948;29;19963;-80
2023/10/31 11:40:08;;;;;;;;;;;15.50;99.90;;;;;;4903083;29;19919;-84
2023/10/31 11:42:36;;;;;;;;;;;15.70;99.90;;;;;;4899869;29;19923;-79
2023/10/31 11:45:01;;;;;;;;;;;15.90;99.90;;;;;;4901703;29;19911;-84
2023/10/31 11:47:29;;;;;;;;;;;16.10;99.90;;;;;;4903399;29;19967;-81
2023/10/31 11:49:55;;;;;;;;;;;16.30;99.90;;;;;;4904191;29;19907;-81
2023/10/31 11:52:20;;;;;;;;;;;16.60;99.90;;;;;;4893231;29;19958;-82
2023/10/31 11:54:46;;;;;;;;;;;16.90;99.90;;;;;;4885272;29;20006;-81
2023/10/31 11:57:25;;;;;;;;;;;17.00;99.90;;;;;;4908148;29;19915;-84
2023/10/31 11:59:51;;;;;;;;;;;17.20;99.90;;;;;;4908106;29;19914;-81
2023/10/31 12:02:18;;;;;;;;;;;17.40;99.90;;;;;;4917174;29;19906;-80
2023/10/31 12:04:43;;;;;;;;;;;17.50;99.90;;;;;;4912064;29;19938;-81
2023/10/31 12:07:09;;;;;;;;;;;17.80;99.90;;;;;;4883553;29;19939;-81
2023/10/31 12:09:47;;;;;;;;;;;18.00;99.90;;;;;;4902635;29;19970;-83
2023/10/31 12:12:12;;;;;;;;;;;18.20;99.90;;;;;;4925198;29;19959;-81
2023/10/31 12:14:38;;;;;;;;;;;18.30;99.90;;;;;;4898436;29;20367;-81
2023/10/31 12:17:04;;;;;;;;;;;18.50;99.90;;;;;;4904913;29;20319;-84
2023/10/31 12:19:30;;;;;;;;;;;18.60;99.90;;;;;;4906762;29;20417;-81
2023/10/31 12:21:56;;;;;;;;;;;18.90;99.90;;;;;;4898815;29;19966;-83
2023/10/31 12:24:21;;;;;;;;;;;19.00;99.90;;;;;;4912073;29;19911;-80
2023/10/31 12:26:47;;;;;;;;;;;19.30;99.90;;;;;;4897576;29;19966;-85
2023/10/31 12:29:16;;;;;;;;;;;19.60;99.90;;;;;;4911501;29;19970;-82
2023/10/31 12:31:45;;;;;;;;;;;19.80;99.90;;;;;;4901246;29;20268;-81
2023/10/31 12:34:11;;;;;;;;;;;20.10;99.90;;;;;;4915779;29;19919;-81
2023/10/31 12:36:37;;;;;;;;;;;20.20;99.90;;;;;;4915862;29;20371;-83
2023/10/31 12:39:12;;;;;;;;;;;20.40;99.90;;;;;;4917413;29;19915;-84
2023/10/31 12:41:38;;;;;;;;;;;20.20;99.90;;;;;;4899660;29;19941;-81
2023/10/31 12:44:04;;;;;;;;;;;19.70;99.90;;;;;;4906663;29;19915;-81
2023/10/31 12:46:31;;;;;;;;;;;19.80;99.90;;;;;;4910809;29;20295;-81
2023/10/31 12:48:59;;;;;;;;;;;20.10;99.90;;;;;;4890743;29;19967;-85
2023/10/31 12:51:25;;;;;;;;;;;19.40;99.90;;;;;;4898069;29;19908;-82
2023/10/31 12:53:51;;;;;;;;;;;19.10;99.90;;;;;;4926982;29;19911;-80
2023/10/31 12:56:42;;;;;;;;;;;18.80;99.90;;;;;;4941625;29;19906;-81
2023/10/31 12:59:08;;;;;;;;;;;18.70;99.90;;;;;;4930887;29;19995;-82
2023/10/31 13:01:42;;;;;;;;;;;18.80;99.90;;;;;;4910131;29;19907;-80
2023/10/31 13:04:07;;;;;;;;;;;18.90;99.90;;;;;;4897697;29;19916;-84
2023/10/31 13:06:33;;;;;;;;;;;19.00;99.90;;;;;;4899826;29;20024;-82
2023/10/31 13:08:59;;;;;;;;;;;18.80;99.90;;;;;;4899775;29;20390;-83
2023/10/31 13:11:28;;;;;;;;;;;18.70;99.90;;;;;;4910794;29;19922;-84
2023/10/31 13:13:54;;;;;;;;;;;18.70;99.90;;;;;;4888576;29;19918;-81
2023/10/31 13:16:19;;;;;;;;;;;18.70;99.90;;;;;;4897173;29;20386;-84
2023/10/31 13:18:45;;;;;;;;;;;18.70;99.90;;;;;;4913378;29;20306;-79
2023/10/31 13:21:12;;;;;;;;;;;18.60;99.90;;;;;;4916228;29;19915;-78
2023/10/31 13:23:38;;;;;;;;;;;18.60;99.90;;;;;;4915639;29;19915;-76
2023/10/31 13:26:04;;;;;;;;;;;18.50;99.90;;;;;;4915911;29;19911;-77
2023/10/31 13:28:32;;;;;;;;;;;18.50;99.90;;;;;;4915323;29;19934;-85
2023/10/31 13:30:57;;;;;;;;;;;18.50;99.90;;;;;;4926029;29;19907;-79
2023/10/31 13:33:23;;;;;;;;;;;18.70;99.90;;;;;;4921370;29;19917;-77
2023/10/31 13:35:48;;;;;;;;;;;18.90;99.90;;;;;;4904800;29;19911;-84
2023/10/31 13:38:14;;;;;;;;;;;19.10;99.90;;;;;;4883264;29;20298;-85
2023/10/31 13:40:40;;;;;;;;;;;19.10;99.90;;;;;;4915749;29;19918;-78
2023/10/31 13:43:05;;;;;;;;;;;19.00;99.90;;;;;;4906367;29;19911;-78
2023/10/31 13:45:31;;;;;;;;;;;18.90;99.90;;;;;;4909439;29;19915;-81
2023/10/31 13:47:56;;;;;;;;;;;18.70;99.90;;;;;;4896642;29;20355;-79
2023/10/31 13:50:22;;;;;;;;;;;18.80;99.90;;;;;;4896852;29;19959;-79
2023/10/31 13:52:48;;;;;;;;;;;18.60;99.90;;;;;;4906056;29;19930;-79
2023/10/31 13:55:14;;;;;;;;;;;18.70;99.90;;;;;;4916581;29;19911;-79
2023/10/31 13:57:40;;;;;;;;;;;18.70;99.90;;;;;;4893458;29;20444;-84
2023/10/31 14:00:08;;;;;;;;;;;18.90;99.90;;;;;;4911758;29;19911;-78
2023/10/31 14:02:35;;;;;;;;;;;19.00;99.90;;;;;;4911376;29;20272;-77
2023/10/31 14:05:00;;;;;;;;;;;19.00;99.90;;;;;;4899339;29;19915;-78
2023/10/31 14:07:26;;;;;;;;;;;18.80;99.90;;;;;;4899772;29;20362;-77
2023/10/31 14:09:52;;;;;;;;;;;18.70;99.90;;;;;;4915249;29;19915;-82